Airfield :







YOU CAN JOIN US ON...

 
LOGIN :

Register | Disclaimer

   EN    FR    IT 

 









Legend :    VFR   Marginal VFR   IFR   Intensive IFR   Very Intensive IFR
Visi :
Ceiling :
>= 8 km
>= 3000ft
5 to 8 km
1000 to 3000 ft
1500m to 5 km
500 to 1000 ft
800 to 1500m
200 to 500 ft
< 800m
< 200 ft
Symbols :   Thunderstorms  Fog  Heavy snow  Heavy precipitations  Wind > 20 kt






- Airport Elevation : 75 ft
- IATA code : YXP


CYXP - Pangnirtung

CURRENT METAR :
  • 041700Z 09020G28KT 15SM DRSN SCT035 OVC058 00/M09 A2935 RMK SC3SC5 SLP943

EXPIRED METARs :
  • 041600Z 09016G24KT 060V130 15SM DRSN BKN085 00/M09 A2934 RMK AC7 SLP940
  • 041500Z 09020G29KT 15SM DRSN FEW035 OVC090 M00/M08 A2933 RMK SC2AC6 SLP937

TAF TAF CYXP
Valid from the 04 at 14:00 until the 04 at 23:00 UTC


041338Z 0414/0423 08015G30KT P6SM SCT030 OVC100
TEMPO 0414/0423 4SM -SN BKN030 OVC080
BECMG 0418/0420 08012KT RMK NXT FCST BY 041900Z
CZEG FIR / North America



MET'MAP, your aeronautical weather chart ! - Copyright ORBIFLY December 2007 - Disclaimer

ORBIFLY MET'MAP TEAM :

Programming & Development : Alexandra Zaïnal
Concept & original design : Baudouin d'Aumeries
Assistance for programming : Marc-Olivier Méhu
Technical & hardware support : Manuel Goepfert

Contact : metmap@orbifly.com




SOURCES & CREDITS :

   NOAA